createdAt,value
2022-11-20T00:00:17.994Z,41.17
2022-11-20T00:00:39.544Z,41.58
2022-11-20T00:01:05.653Z,41.37
2022-11-20T00:01:27.790Z,41.72
2022-11-20T00:01:50.483Z,41.54
2022-11-20T00:02:12.151Z,41.38
2022-11-20T00:02:33.762Z,41.22
2022-11-20T00:02:55.473Z,41.38
2022-11-20T00:03:18.097Z,41.63
2022-11-20T00:03:41.055Z,41.70
2022-11-20T00:04:02.630Z,41.40
2022-11-20T00:04:24.268Z,41.49
2022-11-20T00:04:45.971Z,41.53
2022-11-20T00:05:10.020Z,41.28
2022-11-20T00:05:33.382Z,40.81
2022-11-20T00:05:54.985Z,40.60
2022-11-20T00:06:18.520Z,41.18
2022-11-20T00:06:41.062Z,41.06
2022-11-20T00:07:02.661Z,40.95
2022-11-20T00:07:25.628Z,40.91
2022-11-20T00:07:47.808Z,41.02
2022-11-20T00:08:10.346Z,41.25
2022-11-20T00:08:32.150Z,41.14
2022-11-20T00:08:55.951Z,41.34
2022-11-20T00:09:18.877Z,41.61
2022-11-20T00:09:40.690Z,41.76
2022-11-20T00:10:02.664Z,41.43
2022-11-20T00:10:24.298Z,41.70
2022-11-20T00:10:45.869Z,41.64
2022-11-20T00:11:15.283Z,41.60
2022-11-20T00:11:37.598Z,41.58
2022-11-20T00:11:59.121Z,41.60
2022-11-20T00:12:21.725Z,41.81
2022-11-20T00:12:43.258Z,42.00
2022-11-20T00:13:05.318Z,41.81
2022-11-20T00:13:26.910Z,41.62
2022-11-20T00:13:51.538Z,41.77
2022-11-20T00:14:13.122Z,42.04
2022-11-20T00:14:34.771Z,41.75
2022-11-20T00:14:56.440Z,41.35
2022-11-20T00:15:19.046Z,41.06
2022-11-20T00:15:40.588Z,41.02
2022-11-20T00:16:04.605Z,40.96
2022-11-20T00:16:28.513Z,41.15
2022-11-20T00:16:51.057Z,41.27
2022-11-20T00:17:12.598Z,41.72
2022-11-20T00:17:34.265Z,41.93
2022-11-20T00:17:55.858Z,41.35
2022-11-20T00:18:17.447Z,41.12
2022-11-20T00:18:40.037Z,41.12
2022-11-20T00:19:02.176Z,41.21
2022-11-20T00:19:23.845Z,41.49
2022-11-20T00:19:45.445Z,41.44
2022-11-20T00:20:08.807Z,41.43
2022-11-20T00:20:31.031Z,41.69
2022-11-20T00:20:52.707Z,41.74
2022-11-20T00:21:16.048Z,41.96
2022-11-20T00:21:38.662Z,41.12
2022-11-20T00:22:00.291Z,41.04
2022-11-20T00:22:21.895Z,40.87
2022-11-20T00:22:45.758Z,41.04
2022-11-20T00:23:07.955Z,41.00
2022-11-20T00:23:29.585Z,41.00
2022-11-20T00:23:54.923Z,40.88
2022-11-20T00:24:17.794Z,41.13
2022-11-20T00:24:42.991Z,41.33
2022-11-20T00:25:05.709Z,41.27
2022-11-20T00:25:27.347Z,41.15
2022-11-20T00:25:49.107Z,41.12
2022-11-20T00:26:13.463Z,40.93
2022-11-20T00:26:35.034Z,41.00
2022-11-20T00:26:56.590Z,41.12
2022-11-20T00:27:19.154Z,41.24
2022-11-20T00:27:40.739Z,41.45
2022-11-20T00:28:02.351Z,41.65
2022-11-20T00:28:23.938Z,41.48
2022-11-20T00:28:51.559Z,41.95
2022-11-20T00:29:13.247Z,42.02
2022-11-20T00:29:34.855Z,41.73
2022-11-20T00:29:56.694Z,41.77
2022-11-20T00:30:19.804Z,41.62
2022-11-20T00:30:41.461Z,41.55
2022-11-20T00:31:04.248Z,41.51
2022-11-20T00:31:26.156Z,41.48
2022-11-20T00:31:48.690Z,41.70
2022-11-20T00:32:10.399Z,41.62
2022-11-20T00:32:32.054Z,41.82
2022-11-20T00:32:53.618Z,41.96
2022-11-20T00:33:15.197Z,41.61
2022-11-20T00:33:38.409Z,41.17
2022-11-20T00:33:59.979Z,41.00
2022-11-20T00:34:21.547Z,41.27
2022-11-20T00:34:43.081Z,41.03
2022-11-20T00:35:06.356Z,40.97
2022-11-20T00:35:27.952Z,41.51
2022-11-20T00:35:49.671Z,41.84
2022-11-20T00:36:13.719Z,41.97
2022-11-20T00:36:35.342Z,42.06
2022-11-20T00:36:57.943Z,41.91
2022-11-20T00:37:19.564Z,41.92
2022-11-20T00:37:41.118Z,41.39
2022-11-20T00:38:04.055Z,41.00
2022-11-20T00:38:25.711Z,41.68
2022-11-20T00:38:48.686Z,41.76
2022-11-20T00:39:10.286Z,41.92
2022-11-20T00:39:31.828Z,41.84
2022-11-20T00:39:53.462Z,42.20
2022-11-20T00:40:16.108Z,41.96
2022-11-20T00:40:37.700Z,41.46
2022-11-20T00:41:00.382Z,41.88
2022-11-20T00:41:23.611Z,41.53
2022-11-20T00:41:45.404Z,41.57
2022-11-20T00:42:06.992Z,41.73
2022-11-20T00:42:28.592Z,41.86
2022-11-20T00:42:51.151Z,42.09
2022-11-20T00:43:12.707Z,41.87
2022-11-20T00:43:34.442Z,41.72
2022-11-20T00:43:57.205Z,41.68
2022-11-20T00:44:18.819Z,41.33
2022-11-20T00:44:41.516Z,41.58
2022-11-20T00:45:03.362Z,41.51
2022-11-20T00:45:24.985Z,41.79
2022-11-20T00:45:46.528Z,41.68
2022-11-20T00:46:11.398Z,41.54
2022-11-20T00:46:33.237Z,41.28
2022-11-20T00:46:54.818Z,41.26
2022-11-20T00:47:16.430Z,41.48
2022-11-20T00:47:38.972Z,41.24
2022-11-20T00:48:00.550Z,41.42
2022-11-20T00:48:22.299Z,41.23
2022-11-20T00:48:44.522Z,40.93
2022-11-20T00:49:07.051Z,41.22
2022-11-20T00:49:28.618Z,41.51
2022-11-20T00:49:50.184Z,41.44
2022-11-20T00:50:11.903Z,41.15
2022-11-20T00:50:34.496Z,41.27
2022-11-20T00:50:56.657Z,41.45
2022-11-20T00:51:20.723Z,41.60
2022-11-20T00:51:42.366Z,41.62
2022-11-20T00:52:05.038Z,41.36
2022-11-20T00:52:26.588Z,41.74
2022-11-20T00:52:48.123Z,41.56
2022-11-20T00:53:11.031Z,41.55
2022-11-20T00:53:33.643Z,41.56
2022-11-20T00:53:56.842Z,41.47
2022-11-20T00:54:18.396Z,41.38
2022-11-20T00:54:39.947Z,41.10
2022-11-20T00:55:02.726Z,41.39
2022-11-20T00:55:24.286Z,41.27
2022-11-20T00:55:53.702Z,41.38
2022-11-20T00:56:17.491Z,41.42
2022-11-20T00:56:41.008Z,41.45
2022-11-20T00:57:02.621Z,41.59
2022-11-20T00:57:24.309Z,41.58
2022-11-20T00:57:45.897Z,41.57
2022-11-20T00:58:13.007Z,41.49
2022-11-20T00:58:38.369Z,41.38
2022-11-20T00:59:01.780Z,41.19
2022-11-20T00:59:24.004Z,40.99
2022-11-20T00:59:45.658Z,41.27
2022-11-20T01:00:09.213Z,41.41
2022-11-20T01:00:30.865Z,41.85
2022-11-20T01:00:52.635Z,41.64
2022-11-20T01:01:17.179Z,41.85
2022-11-20T01:01:39.363Z,41.70
2022-11-20T01:02:01.969Z,41.50
2022-11-20T01:02:23.573Z,41.17
2022-11-20T01:02:45.214Z,41.49
2022-11-20T01:03:06.858Z,41.22
2022-11-20T01:03:29.114Z,40.98
2022-11-20T01:03:52.887Z,41.02
2022-11-20T01:04:14.524Z,41.37
2022-11-20T01:04:36.083Z,41.08
2022-11-20T01:04:57.677Z,41.41
2022-11-20T01:05:19.242Z,41.32
2022-11-20T01:05:41.809Z,40.98
2022-11-20T01:06:04.820Z,40.77
2022-11-20T01:06:29.557Z,40.91
2022-11-20T01:06:52.129Z,40.86
2022-11-20T01:07:13.777Z,40.60
2022-11-20T01:07:35.377Z,40.36
2022-11-20T01:07:56.938Z,40.61
2022-11-20T01:08:19.823Z,40.80
2022-11-20T01:08:42.932Z,41.09
2022-11-20T01:09:07.167Z,41.25
2022-11-20T01:09:28.803Z,41.43
2022-11-20T01:09:50.367Z,41.61
2022-11-20T01:10:13.278Z,41.47
2022-11-20T01:10:34.886Z,41.33
2022-11-20T01:11:00.185Z,41.48
2022-11-20T01:11:23.410Z,41.47
2022-11-20T01:11:47.214Z,41.37
2022-11-20T01:12:08.827Z,41.17
2022-11-20T01:12:30.437Z,41.06
2022-11-20T01:13:12.147Z,40.86
2022-11-20T01:14:18.745Z,41.43
2022-11-20T01:14:40.340Z,41.42
2022-11-20T01:15:02.014Z,41.53
2022-11-20T01:15:23.589Z,41.14
2022-11-20T01:15:45.184Z,40.99
2022-11-20T01:16:10.147Z,41.00
2022-11-20T01:16:33.675Z,41.00
2022-11-20T01:16:55.218Z,41.30
2022-11-20T01:17:16.808Z,41.35
2022-11-20T01:17:38.490Z,40.91
2022-11-20T01:18:01.091Z,40.70
2022-11-20T01:18:22.757Z,40.99
2022-11-20T01:18:46.650Z,40.90
2022-11-20T01:19:12.899Z,41.24
2022-11-20T01:19:37.421Z,41.38
2022-11-20T01:19:59.033Z,41.37
2022-11-20T01:20:20.653Z,41.53
2022-11-20T01:20:42.233Z,41.45
2022-11-20T01:21:06.963Z,41.28
2022-11-20T01:21:30.850Z,41.48
2022-11-20T01:21:54.554Z,41.58
2022-11-20T01:22:17.195Z,41.19
2022-11-20T01:22:38.801Z,41.17
2022-11-20T01:23:00.425Z,41.09
2022-11-20T01:23:23.411Z,41.23
2022-11-20T01:23:45.677Z,41.29
2022-11-20T01:24:10.720Z,41.11
2022-11-20T01:24:32.552Z,40.88
2022-11-20T01:24:54.092Z,40.69
2022-11-20T01:25:15.833Z,40.94
2022-11-20T01:25:37.491Z,41.10
2022-11-20T01:26:01.118Z,40.87
2022-11-20T01:26:27.285Z,41.00
2022-11-20T01:26:51.136Z,40.75
2022-11-20T01:27:12.791Z,40.70
2022-11-20T01:27:35.348Z,40.96
2022-11-20T01:27:56.916Z,40.89
2022-11-20T01:28:18.486Z,40.93
2022-11-20T01:28:41.202Z,41.13
2022-11-20T01:29:05.112Z,41.04
2022-11-20T01:29:26.692Z,41.01
2022-11-20T01:29:48.258Z,40.97
2022-11-20T01:30:10.835Z,41.36
2022-11-20T01:30:32.440Z,40.93
2022-11-20T01:30:54.034Z,40.93
2022-11-20T01:31:18.385Z,41.07
2022-11-20T01:31:40.013Z,41.05
2022-11-20T01:32:01.627Z,41.18
2022-11-20T01:32:23.195Z,41.10
2022-11-20T01:32:45.050Z,40.89
2022-11-20T01:33:07.632Z,40.66
2022-11-20T01:33:29.282Z,40.92
2022-11-20T01:33:52.624Z,40.80
2022-11-20T01:34:16.721Z,40.99
2022-11-20T01:34:39.238Z,41.15
2022-11-20T01:35:00.840Z,40.66
2022-11-20T01:35:22.454Z,40.43
2022-11-20T01:35:44.125Z,40.26
2022-11-20T01:36:07.080Z,41.00
2022-11-20T01:36:32.649Z,41.09
2022-11-20T01:36:54.614Z,41.33
2022-11-20T01:37:16.223Z,41.15
2022-11-20T01:37:37.766Z,41.27
2022-11-20T01:38:00.271Z,41.26
2022-11-20T01:38:23.556Z,41.15
2022-11-20T01:38:45.371Z,41.38
2022-11-20T01:39:10.889Z,41.08
2022-11-20T01:39:33.445Z,40.98
2022-11-20T01:39:54.984Z,40.94
2022-11-20T01:40:16.636Z,41.05
2022-11-20T01:40:38.282Z,41.43
2022-11-20T01:40:59.947Z,41.15
2022-11-20T01:41:41.533Z,41.21
2022-11-20T01:42:21.798Z,41.14
2022-11-20T01:43:04.790Z,41.09
2022-11-20T01:43:29.355Z,41.41
2022-11-20T01:43:50.898Z,41.07
2022-11-20T01:44:15.887Z,41.00
2022-11-20T01:44:55.694Z,40.98
2022-11-20T01:45:57.967Z,40.98
2022-11-20T01:46:20.376Z,40.95
2022-11-20T01:46:51.721Z,40.89
2022-11-20T01:47:17.429Z,40.63
2022-11-20T01:47:44.542Z,41.00
2022-11-20T01:48:06.658Z,41.12
2022-11-20T01:48:34.719Z,41.86
2022-11-20T01:49:01.679Z,41.59
2022-11-20T01:49:28.915Z,41.76
2022-11-20T01:49:57.129Z,41.49
2022-11-20T01:50:24.852Z,41.26
2022-11-20T01:50:46.954Z,41.49
2022-11-20T01:51:18.730Z,40.92
2022-11-20T01:51:43.325Z,40.90
2022-11-20T01:52:08.483Z,41.15
2022-11-20T01:52:36.769Z,41.41
2022-11-20T01:53:02.965Z,41.33
2022-11-20T01:53:30.273Z,41.56
2022-11-20T01:53:55.143Z,41.35
2022-11-20T01:54:23.512Z,41.51
2022-11-20T01:54:49.805Z,41.35
2022-11-20T01:55:15.889Z,41.15
2022-11-20T01:55:40.825Z,41.27
2022-11-20T01:56:07.787Z,41.31
2022-11-20T01:56:32.393Z,41.22
2022-11-20T01:56:58.429Z,41.09
2022-11-20T01:57:21.427Z,41.29
2022-11-20T01:57:46.357Z,41.56
2022-11-20T01:58:08.348Z,41.52
2022-11-20T01:58:33.898Z,41.67
2022-11-20T01:58:59.499Z,41.79
2022-11-20T01:59:26.264Z,41.45
2022-11-20T01:59:55.518Z,41.74
2022-11-20T02:00:20.079Z,41.53
2022-11-20T02:00:41.743Z,41.71
2022-11-20T02:01:05.789Z,41.46
2022-11-20T02:01:27.456Z,41.69
2022-11-20T02:01:49.192Z,41.68
2022-11-20T02:02:11.812Z,41.71
2022-11-20T02:02:33.848Z,41.86
2022-11-20T02:02:59.442Z,41.90
2022-11-20T02:03:21.252Z,41.58
2022-11-20T02:03:43.817Z,41.68
2022-11-20T02:04:07.435Z,41.58
2022-11-20T02:04:29.159Z,41.81
2022-11-20T02:04:55.199Z,41.83
2022-11-20T02:05:23.702Z,41.85
2022-11-20T02:05:52.466Z,41.59
2022-11-20T02:06:20.203Z,41.69
2022-11-20T02:06:45.651Z,41.73
2022-11-20T02:07:07.485Z,41.72
2022-11-20T02:07:29.664Z,41.56
2022-11-20T02:07:52.796Z,41.61
2022-11-20T02:08:14.918Z,41.19
2022-11-20T02:08:38.910Z,40.96
2022-11-20T02:09:00.512Z,41.13
2022-11-20T02:09:23.580Z,41.25
2022-11-20T02:09:45.285Z,41.39
2022-11-20T02:10:07.455Z,40.96
2022-11-20T02:10:30.097Z,41.30
2022-11-20T02:10:52.780Z,41.27
2022-11-20T02:11:14.840Z,41.31
2022-11-20T02:11:36.482Z,41.36
2022-11-20T02:11:59.062Z,41.34
2022-11-20T02:12:41.381Z,41.35
2022-11-20T02:13:21.744Z,41.02
2022-11-20T02:13:47.219Z,41.03
2022-11-20T02:14:09.651Z,40.80
2022-11-20T02:14:31.376Z,40.75
2022-11-20T02:14:52.998Z,40.91
2022-11-20T02:15:14.623Z,40.97
2022-11-20T02:15:36.323Z,41.38
2022-11-20T02:15:58.175Z,41.40
2022-11-20T02:16:25.146Z,41.43
2022-11-20T02:16:48.092Z,41.63
2022-11-20T02:17:09.698Z,41.75
2022-11-20T02:17:32.450Z,41.80
2022-11-20T02:17:54.565Z,41.67
2022-11-20T02:18:19.625Z,41.67
2022-11-20T02:18:41.948Z,41.50
2022-11-20T02:19:08.217Z,41.31
2022-11-20T02:19:32.083Z,41.55
2022-11-20T02:19:54.717Z,41.28
2022-11-20T02:20:16.636Z,41.57
2022-11-20T02:20:39.379Z,41.41
2022-11-20T02:21:08.574Z,41.00
2022-11-20T02:21:38.075Z,40.86
2022-11-20T02:22:06.632Z,40.76
2022-11-20T02:22:33.179Z,41.10
2022-11-20T02:22:58.691Z,41.37
2022-11-20T02:23:29.098Z,40.96
2022-11-20T02:24:01.991Z,40.84
2022-11-20T02:24:24.895Z,40.94
2022-11-20T02:24:48.612Z,41.16
2022-11-20T02:25:11.447Z,41.27
2022-11-20T02:25:36.010Z,41.20
2022-11-20T02:26:00.339Z,41.39
2022-11-20T02:26:24.102Z,41.65
2022-11-20T02:26:50.583Z,41.45
2022-11-20T02:27:14.941Z,41.24
2022-11-20T02:27:38.259Z,41.08
2022-11-20T02:27:59.864Z,41.13
2022-11-20T02:28:21.786Z,41.50
2022-11-20T02:28:44.502Z,41.73
2022-11-20T02:29:06.302Z,41.79
2022-11-20T02:29:34.841Z,41.08
2022-11-20T02:30:00.742Z,40.99
2022-11-20T02:30:22.422Z,40.91
2022-11-20T02:30:44.130Z,41.64
2022-11-20T02:31:06.726Z,41.80
2022-11-20T02:31:28.395Z,41.64
2022-11-20T02:31:50.003Z,41.33
2022-11-20T02:32:19.585Z,41.21
2022-11-20T02:32:41.543Z,41.06
2022-11-20T02:33:04.376Z,40.98
2022-11-20T02:33:26.000Z,41.10
2022-11-20T02:33:47.546Z,41.20
2022-11-20T02:34:09.719Z,41.32
2022-11-20T02:34:32.298Z,41.25
2022-11-20T02:34:54.103Z,41.22
2022-11-20T02:35:46.252Z,41.38
2022-11-20T02:36:13.554Z,41.43
2022-11-20T02:36:37.694Z,41.26
2022-11-20T02:37:00.568Z,41.29
2022-11-20T02:37:23.762Z,41.12
2022-11-20T02:37:47.476Z,41.14
2022-11-20T02:38:09.566Z,41.11
2022-11-20T02:38:31.195Z,41.24
2022-11-20T02:38:53.075Z,41.22
2022-11-20T02:39:18.836Z,41.37
2022-11-20T02:39:41.303Z,41.75
2022-11-20T02:40:03.192Z,41.71
2022-11-20T02:40:25.145Z,41.79
2022-11-20T02:40:50.272Z,41.83
2022-11-20T02:41:15.332Z,41.76
2022-11-20T02:41:38.528Z,41.86
2022-11-20T02:42:02.050Z,41.76
2022-11-20T02:42:23.575Z,41.64
2022-11-20T02:42:46.119Z,41.59
2022-11-20T02:43:08.449Z,41.96
2022-11-20T02:43:30.009Z,42.40
2022-11-20T02:43:51.597Z,42.25
2022-11-20T02:44:14.454Z,42.23
2022-11-20T02:44:36.041Z,42.15
2022-11-20T02:44:57.686Z,42.14
2022-11-20T02:45:19.448Z,42.21
2022-11-20T02:45:42.013Z,42.15
2022-11-20T02:46:03.613Z,41.94
2022-11-20T02:46:25.526Z,41.93
2022-11-20T02:46:47.143Z,42.16
2022-11-20T02:47:09.773Z,41.86
2022-11-20T02:47:31.688Z,42.02
2022-11-20T02:47:53.757Z,42.13
2022-11-20T02:48:15.326Z,41.98
2022-11-20T02:48:37.916Z,41.90
2022-11-20T02:48:59.699Z,41.91
2022-11-20T02:49:21.716Z,42.01
2022-11-20T02:49:43.492Z,41.94
2022-11-20T02:50:06.545Z,42.08
2022-11-20T02:50:29.163Z,41.96
2022-11-20T02:50:50.803Z,41.77
2022-11-20T02:51:12.353Z,41.95
2022-11-20T02:51:34.957Z,41.81
2022-11-20T02:51:56.593Z,41.89
2022-11-20T02:52:18.205Z,41.85
2022-11-20T02:52:39.759Z,41.90
2022-11-20T02:53:01.385Z,42.12
2022-11-20T02:53:23.933Z,42.06
2022-11-20T02:53:45.454Z,41.95
2022-11-20T02:54:07.026Z,42.20
2022-11-20T02:54:30.098Z,42.13
2022-11-20T02:54:52.851Z,41.66
2022-11-20T02:55:14.439Z,41.52
2022-11-20T02:55:37.145Z,41.12
2022-11-20T02:55:58.744Z,41.19
2022-11-20T02:56:20.899Z,41.00
2022-11-20T02:56:43.597Z,40.82
2022-11-20T02:57:05.216Z,40.92
2022-11-20T02:57:26.845Z,41.03
2022-11-20T02:57:48.460Z,41.16
2022-11-20T02:58:11.043Z,41.14
2022-11-20T02:58:32.880Z,41.26
2022-11-20T02:58:54.893Z,41.33
2022-11-20T02:59:16.458Z,41.48
2022-11-20T02:59:39.136Z,41.49
2022-11-20T03:00:00.754Z,41.54
2022-11-20T03:00:22.603Z,41.43
2022-11-20T03:00:44.167Z,41.69
2022-11-20T03:01:05.771Z,41.74
2022-11-20T03:01:28.460Z,41.83
2022-11-20T03:01:50.183Z,41.84
2022-11-20T03:02:11.878Z,41.99
2022-11-20T03:02:33.975Z,41.97
2022-11-20T03:02:56.539Z,41.96
2022-11-20T03:03:18.161Z,41.89
2022-11-20T03:03:39.750Z,41.68
2022-11-20T03:04:01.453Z,41.69
2022-11-20T03:04:23.963Z,41.68
2022-11-20T03:04:45.602Z,41.92
2022-11-20T03:05:07.580Z,41.99
2022-11-20T03:05:29.150Z,41.92
2022-11-20T03:05:50.868Z,41.66
2022-11-20T03:06:13.431Z,41.62
2022-11-20T03:06:35.770Z,41.62
2022-11-20T03:06:57.590Z,41.54
2022-11-20T03:07:19.279Z,41.50
2022-11-20T03:07:41.000Z,41.52
2022-11-20T03:08:03.738Z,41.49
2022-11-20T03:08:25.325Z,41.47
2022-11-20T03:08:46.904Z,41.61
2022-11-20T03:09:08.613Z,41.47
2022-11-20T03:09:32.806Z,41.39
2022-11-20T03:09:54.422Z,41.71
2022-11-20T03:10:16.216Z,41.72
2022-11-20T03:10:38.037Z,41.68
2022-11-20T03:11:04.569Z,41.78
2022-11-20T03:11:26.394Z,41.86
2022-11-20T03:11:48.550Z,41.68
2022-11-20T03:12:10.375Z,41.68
2022-11-20T03:12:32.926Z,41.88
2022-11-20T03:12:55.851Z,41.77
2022-11-20T03:13:17.439Z,41.96
2022-11-20T03:13:39.192Z,41.89
2022-11-20T03:14:04.082Z,42.22
2022-11-20T03:14:25.734Z,42.08
2022-11-20T03:14:52.656Z,42.43
2022-11-20T03:15:14.867Z,42.70
2022-11-20T03:15:37.415Z,42.54
2022-11-20T03:16:00.183Z,42.58
2022-11-20T03:16:23.931Z,42.64
2022-11-20T03:16:45.498Z,42.82
2022-11-20T03:17:07.251Z,42.93
2022-11-20T03:17:30.412Z,42.73
2022-11-20T03:17:54.861Z,42.50
2022-11-20T03:18:16.733Z,42.32
2022-11-20T03:18:38.499Z,42.08
2022-11-20T03:19:01.293Z,41.87
2022-11-20T03:19:23.589Z,41.67
2022-11-20T03:19:45.351Z,41.82
2022-11-20T03:20:08.701Z,42.05
2022-11-20T03:20:30.447Z,42.37
2022-11-20T03:20:59.186Z,42.13
2022-11-20T03:21:20.772Z,42.20
2022-11-20T03:21:42.342Z,41.80
2022-11-20T03:22:04.005Z,41.86
2022-11-20T03:22:26.636Z,41.76
2022-11-20T03:22:48.252Z,41.75
2022-11-20T03:23:09.895Z,41.60
2022-11-20T03:23:32.973Z,41.62
2022-11-20T03:23:55.634Z,41.76
2022-11-20T03:24:18.162Z,41.85
2022-11-20T03:24:41.190Z,41.97
2022-11-20T03:25:03.134Z,42.11
2022-11-20T03:25:25.734Z,41.96
2022-11-20T03:25:47.324Z,41.93
2022-11-20T03:26:15.305Z,41.86
2022-11-20T03:26:37.969Z,41.84
2022-11-20T03:26:59.601Z,41.91
2022-11-20T03:27:21.136Z,41.96
2022-11-20T03:27:42.743Z,42.16
2022-11-20T03:28:04.544Z,42.12
2022-11-20T03:28:27.147Z,42.17
2022-11-20T03:28:50.861Z,42.07
2022-11-20T03:29:12.512Z,42.12
2022-11-20T03:29:35.587Z,42.35
2022-11-20T03:29:58.162Z,42.27
2022-11-20T03:30:19.927Z,42.46
2022-11-20T03:30:41.862Z,42.64
2022-11-20T03:31:07.183Z,42.55
2022-11-20T03:31:31.347Z,42.31
2022-11-20T03:31:52.915Z,42.41
2022-11-20T03:32:14.435Z,42.54
2022-11-20T03:32:36.021Z,42.39
2022-11-20T03:32:57.768Z,42.44
2022-11-20T03:33:20.363Z,42.38
2022-11-20T03:33:43.203Z,42.38
2022-11-20T03:34:05.512Z,42.37
2022-11-20T03:34:27.169Z,42.57
2022-11-20T03:34:49.710Z,42.41
2022-11-20T03:35:11.401Z,42.23
2022-11-20T03:35:33.119Z,42.25
2022-11-20T03:35:54.678Z,42.04
2022-11-20T03:36:19.869Z,42.17
2022-11-20T03:36:43.299Z,42.15
2022-11-20T03:37:04.870Z,42.65
2022-11-20T03:37:26.498Z,42.50
2022-11-20T03:37:48.133Z,42.36
2022-11-20T03:38:10.731Z,42.30
2022-11-20T03:38:33.169Z,42.19
2022-11-20T03:38:56.043Z,42.12
2022-11-20T03:39:18.673Z,42.37
2022-11-20T03:39:41.760Z,42.63
2022-11-20T03:40:03.965Z,42.90
2022-11-20T03:40:25.590Z,43.38
2022-11-20T03:40:48.169Z,43.10
2022-11-20T03:41:12.001Z,42.95
2022-11-20T03:41:38.511Z,42.85
2022-11-20T03:42:00.109Z,42.75
2022-11-20T03:42:40.188Z,42.87
2022-11-20T03:43:02.723Z,42.27
2022-11-20T03:43:24.333Z,42.54
2022-11-20T03:43:48.500Z,42.43
2022-11-20T03:44:12.290Z,42.31
2022-11-20T03:44:34.802Z,42.24
2022-11-20T03:44:56.587Z,42.28
2022-11-20T03:45:19.176Z,42.64
2022-11-20T03:45:40.727Z,42.19
2022-11-20T03:46:02.433Z,42.09
2022-11-20T03:46:25.357Z,42.01
2022-11-20T03:46:47.001Z,42.02
2022-11-20T03:47:08.589Z,42.26
2022-11-20T03:47:30.194Z,42.28
2022-11-20T03:47:52.793Z,42.01
2022-11-20T03:48:14.363Z,41.99
2022-11-20T03:48:35.976Z,41.93
2022-11-20T03:48:58.006Z,42.13
2022-11-20T03:49:20.006Z,42.08
2022-11-20T03:49:41.750Z,42.16
2022-11-20T03:50:04.818Z,42.01
2022-11-20T03:50:26.374Z,42.00
2022-11-20T03:50:48.579Z,42.11
2022-11-20T03:51:11.987Z,42.11
2022-11-20T03:51:36.435Z,42.17
2022-11-20T03:51:58.042Z,42.29
2022-11-20T03:52:19.615Z,42.43
2022-11-20T03:52:41.494Z,42.46
2022-11-20T03:53:03.069Z,42.68
2022-11-20T03:53:25.626Z,42.50
2022-11-20T03:53:48.941Z,42.62
2022-11-20T03:54:10.706Z,42.59
2022-11-20T03:54:32.545Z,42.47
2022-11-20T03:54:56.479Z,42.41
2022-11-20T03:55:18.197Z,42.58
2022-11-20T03:55:39.810Z,42.51
2022-11-20T03:56:01.339Z,42.90
2022-11-20T03:56:26.929Z,43.07
2022-11-20T03:56:48.526Z,43.14
2022-11-20T03:57:10.127Z,43.27
2022-11-20T03:57:31.779Z,43.40
2022-11-20T03:57:54.307Z,43.53
2022-11-20T03:58:15.890Z,43.80
2022-11-20T03:58:40.355Z,43.48
2022-11-20T03:59:03.362Z,43.47
2022-11-20T03:59:24.949Z,43.33
2022-11-20T03:59:46.614Z,43.15
2022-11-20T04:00:09.296Z,43.18
2022-11-20T04:00:30.902Z,43.12
2022-11-20T04:00:53.481Z,43.10
2022-11-20T04:01:17.518Z,42.92
2022-11-20T04:01:39.336Z,42.81
2022-11-20T04:02:00.973Z,42.86
2022-11-20T04:02:23.784Z,42.77
2022-11-20T04:02:45.368Z,42.73
2022-11-20T04:03:07.041Z,42.52
2022-11-20T04:03:28.673Z,42.46
2022-11-20T04:03:53.215Z,42.39
2022-11-20T04:04:14.773Z,42.46
2022-11-20T04:04:36.398Z,42.59
2022-11-20T04:04:58.014Z,42.55
2022-11-20T04:05:20.545Z,42.56
2022-11-20T04:05:42.143Z,42.75
2022-11-20T04:06:05.725Z,42.60
2022-11-20T04:06:28.934Z,42.52
2022-11-20T04:06:51.491Z,42.56
2022-11-20T04:07:13.147Z,42.61
2022-11-20T04:07:35.543Z,42.60
2022-11-20T04:07:57.166Z,42.82
2022-11-20T04:08:18.747Z,42.65
2022-11-20T04:08:42.449Z,42.73
2022-11-20T04:09:04.852Z,42.83
2022-11-20T04:09:26.574Z,43.00
2022-11-20T04:09:48.174Z,43.16
2022-11-20T04:10:12.299Z,43.15
2022-11-20T04:10:33.905Z,43.25
2022-11-20T04:10:55.534Z,43.17
2022-11-20T04:11:19.295Z,43.17
2022-11-20T04:11:42.563Z,43.23
2022-11-20T04:12:04.678Z,43.47
2022-11-20T04:12:26.285Z,43.71
2022-11-20T04:12:47.885Z,43.57
2022-11-20T04:13:10.489Z,43.36
2022-11-20T04:13:32.136Z,43.23
2022-11-20T04:13:55.674Z,43.34
2022-11-20T04:14:17.831Z,43.26
2022-11-20T04:14:40.437Z,42.85
2022-11-20T04:15:02.051Z,42.87
2022-11-20T04:15:23.696Z,42.71
2022-11-20T04:15:45.256Z,42.64
2022-11-20T04:16:09.143Z,42.69
2022-11-20T04:16:34.163Z,42.56
2022-11-20T04:16:55.744Z,42.48
2022-11-20T04:17:17.331Z,42.29
2022-11-20T04:17:39.847Z,42.36
2022-11-20T04:18:01.509Z,42.42
2022-11-20T04:18:23.058Z,42.49
2022-11-20T04:18:45.039Z,42.49
2022-11-20T04:19:10.888Z,42.49
2022-11-20T04:19:32.477Z,42.49
2022-11-20T04:19:54.086Z,42.50
2022-11-20T04:20:15.688Z,42.72
2022-11-20T04:20:38.252Z,42.57
2022-11-20T04:21:00.106Z,42.87
2022-11-20T04:21:22.559Z,43.00
2022-11-20T04:21:45.102Z,42.91
2022-11-20T04:22:07.735Z,43.17
2022-11-20T04:22:29.435Z,43.01
2022-11-20T04:22:54.498Z,43.31
2022-11-20T04:23:16.120Z,43.41
2022-11-20T04:23:37.933Z,43.51
2022-11-20T04:24:00.690Z,43.46
2022-11-20T04:24:22.331Z,43.26
2022-11-20T04:24:43.896Z,43.22
2022-11-20T04:25:06.000Z,43.16
2022-11-20T04:25:29.886Z,42.95
2022-11-20T04:25:51.504Z,42.95
2022-11-20T04:26:13.580Z,43.06
2022-11-20T04:26:35.524Z,43.22
2022-11-20T04:26:58.099Z,43.38
2022-11-20T04:27:19.743Z,43.55
2022-11-20T04:27:41.344Z,43.62
2022-11-20T04:28:02.975Z,43.58
2022-11-20T04:28:25.487Z,43.53
2022-11-20T04:28:47.167Z,43.44
2022-11-20T04:29:11.844Z,43.50
2022-11-20T04:29:33.411Z,43.35
2022-11-20T04:29:54.990Z,43.32
2022-11-20T04:30:17.616Z,43.48
2022-11-20T04:30:39.220Z,43.69
2022-11-20T04:31:05.493Z,43.87
2022-11-20T04:31:29.105Z,43.89
2022-11-20T04:31:51.654Z,43.97
2022-11-20T04:32:13.246Z,44.11
2022-11-20T04:32:34.830Z,44.15
2022-11-20T04:32:56.396Z,43.95
2022-11-20T04:33:17.968Z,43.86
2022-11-20T04:33:40.877Z,43.92
2022-11-20T04:34:03.915Z,44.07
2022-11-20T04:34:25.608Z,43.89
2022-11-20T04:34:47.207Z,43.87
2022-11-20T04:35:10.022Z,43.57
2022-11-20T04:35:35.176Z,43.27
2022-11-20T04:36:01.480Z,43.07
2022-11-20T04:36:25.113Z,43.03
2022-11-20T04:36:47.707Z,42.99
2022-11-20T04:37:09.290Z,43.01
2022-11-20T04:37:30.930Z,42.89
2022-11-20T04:37:52.597Z,42.90
2022-11-20T04:38:14.204Z,43.06
2022-11-20T04:38:36.754Z,43.08
2022-11-20T04:39:00.266Z,43.33
2022-11-20T04:39:22.173Z,43.41
2022-11-20T04:39:44.072Z,43.21
2022-11-20T04:40:07.586Z,43.24
2022-11-20T04:40:31.774Z,43.29
2022-11-20T04:40:57.518Z,42.99
2022-11-20T04:41:20.669Z,43.10
2022-11-20T04:41:42.385Z,43.14
2022-11-20T04:42:22.703Z,43.38
2022-11-20T04:42:45.261Z,43.53
2022-11-20T04:43:06.881Z,43.49
2022-11-20T04:43:28.977Z,43.55
2022-11-20T04:43:52.121Z,43.12
2022-11-20T04:44:14.726Z,43.13
2022-11-20T04:44:36.365Z,43.01
2022-11-20T04:44:58.881Z,43.05
2022-11-20T04:45:20.545Z,43.05
2022-11-20T04:45:42.115Z,43.20
2022-11-20T04:46:04.664Z,43.29
2022-11-20T04:46:27.492Z,43.22
2022-11-20T04:46:49.043Z,43.31
2022-11-20T04:47:10.612Z,43.30
2022-11-20T04:47:33.199Z,43.22
2022-11-20T04:47:54.781Z,43.01
2022-11-20T04:48:16.356Z,43.04
2022-11-20T04:48:37.932Z,43.28
2022-11-20T04:49:00.181Z,43.52
2022-11-20T04:49:22.930Z,43.39
2022-11-20T04:49:44.633Z,43.53
2022-11-20T04:50:07.299Z,43.71
2022-11-20T04:50:28.894Z,43.61
2022-11-20T04:50:51.562Z,43.25
2022-11-20T04:51:13.450Z,42.74
2022-11-20T04:51:35.133Z,42.96
2022-11-20T04:51:56.707Z,42.82
2022-11-20T04:52:19.622Z,42.88
2022-11-20T04:52:41.308Z,43.10
2022-11-20T04:53:02.880Z,43.32
2022-11-20T04:53:25.333Z,43.37
2022-11-20T04:53:48.062Z,43.18
2022-11-20T04:54:12.096Z,43.17
2022-11-20T04:54:33.666Z,43.19
2022-11-20T04:54:56.311Z,43.28
2022-11-20T04:55:17.908Z,43.31
2022-11-20T04:55:40.807Z,43.32
2022-11-20T04:56:03.121Z,43.58
2022-11-20T04:56:25.893Z,43.43
2022-11-20T04:56:48.836Z,43.61
2022-11-20T04:57:14.412Z,43.84
2022-11-20T04:57:36.452Z,43.85